Terminal Aerodrome Forecast
Issued by NWS

Home | Current Version | Previous Version | Text Only | Print | Product List | Glossary On
Versions: 1 2 3 4 5 6 7 8 9 10 11
031
FTUS45 KMSO 261722
TAFSMN
TAF
KSMN 261722Z 2618/2718 03006KT P6SM VCSH BKN080
     FM261900 36009KT P6SM VCSH SCT050 BKN080
     FM262300 VRB05KT P6SM -SHRA BKN030 OVC040
      AMD LTD TO CLD VIS AND WIND=

USA.gov is the U.S. government's official web portal to all federal, state and local government web resources and services.